メインページ
METAR-TAF:

METAR-TAF

空港 :

Holland, ミシガン州, アメリカ合衆国

緯度: 42-44-46N, 経度: 086-05-48W, 海抜: 209m

現時点の気象観測

当レポートは21分前の23:53(UTC)に作成
北/北東の風 8kt
気温 23°C
湿度 47%
気圧 1023 hPa
視程: 16.1km
高度6000ftの千切れ雲あり

METAR: KBIV 232353Z AUTO 02008KT 10SM BKN060 23/11 A3020 RMK AO2 SLP225 T02280106 10239 20217 50002

時間: 20:14 (00:14 UTC)


TAF: 見つかりません

4,000以上の空港の気象観測と天気予報(METAR報とTAF報)

利用可能な観測所は地図上に黄色い丸と赤い丸で示す。

丸の上にカーソルを重ねると観測所名を参照できる。

次にクリックすると気象観測と天気予報を参照できる。

マップの切り替え:黒色「×」印の緑ボタンをクリックして拡大、「-」印の緑ボタンをクリックして縮小、緑色の三角印をクリックして隣りの地図に切り替え


METAR-TAF: